KANB/ANB METAR and TAF weather

Enter ICAO airport designator
Station Type Date Time Source
KANB METAR 2021/04/13 22:53 UTC NOAA

KANB 132253Z AUTO 22004KT 10SM CLR 27/09 A3003 RMK AO2 SLP163 T02670094


Station Type Date Time Source
KANB Decoded METAR 2021/04/13 22:53 UTC NOAA

ANNISTON METRO AIRPORT, AL, United States (KANB) 33-35N 085-51W 183M
Apr 13, 2021 - 06:53 PM EDT / 2021.04.13 2253 UTC
Wind: from the SW (220 degrees) at 5 MPH (4 KT):0
Visibility: 10 mile(s):0
Sky conditions: clear
Temperature: 80.1 F (26.7 C)
Dew Point: 48.9 F (9.4 C)
Relative Humidity: 33%
Pressure (altimeter): 30.03 in. Hg (1016 hPa)
ob: KANB 132253Z AUTO 22004KT 10SM CLR 27/09 A3003 RMK AO2 SLP163 T02670094
cycle: 23

Station Type Date Time Source
KANB TAF 2021/04/13 18:22 UTC NOAA

TAF KANB 131720Z 1318/1418 08003KT P6SM FEW250
FM132200 25006KT P6SM SCT060
FM141500 23005KT P6SM BKN035 PROB30 1415/1418 4SM SHRA BR OVC020

Example: see airport list